Latest Weather Observations for Biloela

IDQ60801

Issued at 6:05 pm EST Thursday 24 April 2014 (issued every 30 minutes, with the page automatically refreshed every 10 minutes)

About weather observations | Map of weather stations | Latest weather observations for QLD | Other Formats
Station Details ID: 039089 Name: THANGOOL AIRPORT Lat: -24.49 Lon: 150.57 Height: 193.1 m
Data from the previous 72 hours. | See also: Recent months at Biloela
Date/Time
EST
Temp
°C
App
Temp
°C
Dew
Point
Rel
Hum
%
Delta-T
°C
Wind Press
QNH
hPa
Press
MSL
hPa
Rain
since 9 am
mm
Dir
 
Spd
km/h
Gust
km/h
Spd
kts
Gust
kts
24/06:00pm 22.6 22.9 15.0 62 4.5 ENE 7 9 4 5 1014.1 1013.3 0.0
24/05:30pm 25.0 25.3 14.5 52 6.3 E 6 7 3 4 1013.8 - 0.0
24/05:00pm 26.4 26.9 15.1 49 6.9 ESE 6 9 3 5 1013.6 - 0.0
24/04:30pm 27.3 27.3 15.3 48 7.4 SSE 9 15 5 8 1013.4 - 0.0
24/04:00pm 27.3 27.3 14.3 45 7.8 SSE 7 13 4 7 1013.1 - 0.0
24/03:30pm 27.7 28.5 14.7 45 7.9 SSE 4 9 2 5 1013.1 - 0.0
24/03:00pm 28.0 27.3 14.3 43 8.3 E 11 17 6 9 1013.0 1012.2 0.0
24/02:30pm 27.9 27.2 14.2 43 8.3 S 11 15 6 8 1013.4 - 0.0
24/02:00pm 27.3 27.5 14.7 46 7.7 S 7 11 4 6 1013.4 - 0.0
24/01:30pm 27.2 27.5 15.9 50 7.0 ESE 9 19 5 10 1013.7 - 0.0
24/01:00pm 27.2 27.6 16.2 51 6.8 SE 9 15 5 8 1014.4 - 0.0
24/12:30pm 27.2 28.3 15.6 49 7.1 E 4 9 2 5 1014.7 - 0.0
24/12:00pm 25.7 25.8 15.4 53 6.3 SE 9 17 5 9 1015.3 1014.5 0.0
24/11:30am 26.4 26.2 14.8 49 7.0 E 9 13 5 7 1016.1 - 0.0
24/11:00am 25.6 26.9 18.5 65 4.5 ESE 9 15 5 8 1016.6 - 0.0
24/10:30am 24.3 25.8 18.0 68 4.0 S 7 11 4 6 1017.1 - 0.0
24/10:00am 23.5 25.3 18.8 75 3.0 SE 7 11 4 6 1017.4 - 0.0
24/09:30am 21.0 21.9 17.6 81 2.1 S 9 13 5 7 1017.4 - 0.0
24/09:00am 19.0 21.1 17.1 89 1.2 E 2 6 1 3 1018.0 1017.2 0.0
24/08:30am 18.4 19.6 16.9 91 0.9 E 6 9 3 5 1017.6 - 0.0
24/08:00am 18.0 20.4 17.0 94 0.6 CALM 0 0 0 0 1018.0 - 0.0
24/07:30am 16.5 18.5 15.9 96 0.4 CALM 0 0 0 0 1017.1 - 0.0
24/07:00am 15.7 17.0 15.1 96 0.3 ENE 2 9 1 5 1016.8 - 0.0
24/06:30am 15.3 15.5 14.7 96 0.3 SE 7 9 4 5 1015.5 - 0.0
24/06:00am 15.3 15.7 14.7 96 0.3 E 6 7 3 4 1016.2 1015.4 0.0
24/05:30am 15.4 15.7 14.9 97 0.3 ESE 7 9 4 5 1016.0 - 0.0
24/05:00am 14.8 14.8 14.3 97 0.3 E 7 7 4 4 1016.2 - 0.0
24/04:53am 14.7 14.7 14.2 97 0.3 E 7 9 4 5 1016.0 - 0.0
24/04:36am 14.5 15.0 13.9 96 0.3 ESE 4 9 2 5 1015.6 - 0.0
24/04:35am 14.5 15.4 13.9 96 0.3 ESE 2 7 1 4 1015.6 - 0.0
24/04:30am 14.5 15.7 13.9 96 0.3 CALM 0 0 0 0 1015.4 - 0.0
24/04:00am 14.6 15.9 14.0 96 0.3 CALM 0 0 0 0 1016.1 - 0.0
24/03:30am 14.6 15.0 13.8 95 0.5 E 4 7 2 4 1015.8 - 0.0
24/03:29am 14.6 14.7 13.8 95 0.5 E 6 7 3 4 1015.8 - 0.0
24/03:00am 15.0 14.9 14.0 94 0.6 ENE 7 7 4 4 1015.5 1014.7 0.0
24/02:30am 15.9 16.3 15.3 96 0.4 E 7 9 4 5 1015.7 - 0.0
24/02:00am 15.8 16.3 15.0 95 0.5 E 6 7 3 4 1016.0 - 0.0
24/01:30am 16.2 16.8 15.2 94 0.6 ESE 6 9 3 5 1016.1 - 0.0
24/01:00am 16.5 17.0 15.5 94 0.6 ESE 7 9 4 5 1016.5 - 0.0
24/12:30am 16.6 16.7 15.6 94 0.6 E 9 9 5 5 1017.1 - 0.0
24/12:00am 17.0 18.3 16.2 95 0.5 E 4 9 2 5 1017.1 1016.4 0.0
 
Date/Time
EST
Temp
°C
App
Temp
°C
Dew
Point
Rel
Hum
%
Delta-T
°C
Wind Press
QNH
hPa
Press
MSL
hPa
Rain
since 9 am
mm
Dir
 
Spd
km/h
Gust
km/h
Spd
kts
Gust
kts
23/11:30pm 16.7 17.3 15.2 91 0.9 ENE 6 7 3 4 1017.6 - 0.0
23/11:00pm 17.6 19.6 16.1 91 0.9 CALM 0 0 0 0 1017.7 - 0.0
23/10:30pm 18.0 20.1 16.3 90 1.0 CALM 0 0 0 0 1017.9 - 0.0
23/10:00pm 18.3 20.3 15.9 86 1.4 W 0 0 0 0 1017.9 - 0.0
23/09:30pm 19.9 22.4 17.3 85 1.6 CALM 0 0 0 0 1017.7 - 0.0
23/09:00pm 20.4 22.3 16.8 80 2.2 W 2 7 1 4 1018.0 1017.2 0.0
23/08:30pm 21.1 22.5 17.3 79 2.3 ESE 6 13 3 7 1017.6 - 0.0
23/08:00pm 21.1 22.4 17.1 78 2.5 SSW 6 9 3 5 1017.3 - 0.0
23/07:30pm 22.0 21.4 17.6 76 2.7 NE 17 22 9 12 1016.7 - 0.0
23/07:00pm 22.2 21.6 17.6 75 2.9 NE 17 24 9 13 1016.3 - 0.0
23/06:30pm 22.7 22.5 17.6 73 3.2 NE 15 20 8 11 1016.0 - 0.0
23/06:00pm 24.0 24.1 17.5 67 4.1 ENE 13 17 7 9 1015.9 1015.1 0.0
23/05:30pm 25.6 26.5 15.0 52 6.4 N 4 7 2 4 1015.5 - 0.0
23/05:00pm 26.3 26.9 15.4 51 6.7 N 6 9 3 5 1015.0 - 0.0
23/04:30pm 26.0 25.8 14.8 50 6.8 N 9 11 5 6 1015.0 - 0.0
23/04:00pm 26.7 26.1 13.4 43 7.9 NNE 9 13 5 7 1015.0 - 0.0
23/03:30pm 27.8 27.6 14.8 45 7.9 NNW 9 15 5 8 1014.9 - 0.0
23/03:00pm 28.6 29.5 15.2 44 8.2 N 4 7 2 4 1015.0 1014.2 0.0
23/02:30pm 27.5 27.3 13.1 41 8.5 N 6 9 3 5 1015.1 - 0.0
23/02:00pm 28.2 28.9 13.3 40 8.9 SW 2 6 1 3 1015.2 - 0.0
23/01:30pm 27.1 27.2 14.5 46 7.6 NNW 7 11 4 6 1015.6 - 0.0
23/01:00pm 27.7 28.2 15.0 45 7.8 NNE 6 7 3 4 1016.0 - 0.0
23/12:30pm 26.8 26.7 14.9 48 7.2 NNE 9 15 5 8 1016.5 - 0.0
23/12:00pm 26.2 26.8 15.3 51 6.6 NE 6 15 3 8 1017.1 1016.4 0.0
23/11:30am 26.8 28.5 16.1 52 6.6 E 2 9 1 5 1017.6 - 0.0
23/11:00am 25.6 25.8 14.7 51 6.6 E 7 13 4 7 1018.1 - 0.0
23/10:30am 24.9 25.8 16.6 60 5.1 SE 7 15 4 8 1018.6 - 0.0
23/10:00am 23.6 24.1 15.6 61 4.9 ESE 7 13 4 7 1019.0 - 0.0
23/09:30am 23.0 24.3 17.0 69 3.7 SSE 6 9 3 5 1019.1 - 0.0
23/09:00am 21.4 22.6 17.4 78 2.5 ESE 7 11 4 6 1019.2 1018.4 0.0
23/08:30am 19.5 20.9 17.3 87 1.4 ESE 6 9 3 5 1019.1 - 0.0
23/08:00am 17.7 18.7 16.4 92 0.8 SSE 6 9 3 5 1019.0 - 0.0
23/07:30am 16.9 18.9 16.1 95 0.5 CALM 0 0 0 0 1019.1 - 0.0
23/07:00am 15.8 17.4 15.0 95 0.5 CALM 0 0 0 0 1018.6 - 0.0
23/06:30am 14.7 15.5 13.6 93 0.6 ESE 2 6 1 3 1018.4 - 0.0
23/06:00am 15.3 15.4 14.5 95 0.5 ESE 7 9 4 5 1018.1 1017.3 0.0
23/05:30am 15.5 15.6 14.5 94 0.6 ESE 7 7 4 4 1018.1 - 0.0
23/05:00am 15.3 15.5 14.2 93 0.6 ESE 6 7 3 4 1018.2 - 0.0
23/04:30am 15.4 15.5 14.4 94 0.6 ENE 7 7 4 4 1018.0 - 0.0
23/04:00am 15.3 16.6 14.2 93 0.6 CALM 0 2 0 1 1018.2 - 0.0
23/03:30am 15.6 17.0 14.3 92 0.7 CALM 0 0 0 0 1017.6 - 0.0
23/03:00am 16.3 18.0 15.3 94 0.6 CALM 0 0 0 0 1017.7 1017.0 0.0
23/02:30am 15.5 16.9 14.4 93 0.6 CALM 0 0 0 0 1017.7 - 0.0
23/02:00am 15.9 17.4 14.6 92 0.8 CALM 0 0 0 0 1018.0 - 0.0
23/01:30am 15.7 16.9 13.9 89 1.0 CALM 0 0 0 0 1018.2 - 0.0
23/01:00am 16.2 17.6 14.4 89 1.0 CALM 0 0 0 0 1018.8 - 0.0
23/12:30am 16.5 17.8 14.2 86 1.3 CALM 0 0 0 0 1018.8 - 0.0
23/12:00am 16.7 17.6 14.0 84 1.5 NNE 2 7 1 4 1019.1 1018.3 0.0
 
Date/Time
EST
Temp
°C
App
Temp
°C
Dew
Point
Rel
Hum
%
Delta-T
°C
Wind Press
QNH
hPa
Press
MSL
hPa
Rain
since 9 am
mm
Dir
 
Spd
km/h
Gust
km/h
Spd
kts
Gust
kts
22/11:30pm 17.4 17.5 14.5 83 1.7 ESE 7 9 4 5 1018.9 - 0.0
22/11:00pm 18.2 19.6 15.3 83 1.7 ESE 2 9 1 5 1019.4 - 0.0
22/10:30pm 18.3 20.1 15.6 84 1.6 CALM 0 0 0 0 1019.7 - 0.0
22/10:00pm 18.7 20.7 15.9 84 1.7 CALM 0 6 0 3 1019.6 - 0.0
22/09:30pm 19.3 20.2 16.0 81 2.0 SSW 6 9 3 5 1019.7 - 0.0
22/09:00pm 19.6 21.5 15.7 78 2.3 CALM 0 0 0 0 1019.6 1018.8 0.0
22/08:30pm 19.8 21.1 15.2 75 2.7 WSW 2 6 1 3 1019.4 - 0.0
22/08:00pm 22.0 22.1 16.5 71 3.4 NNE 11 15 6 8 1019.0 - 0.0
22/07:30pm 21.5 21.4 14.9 66 3.9 NE 9 15 5 8 1018.6 - 0.0
22/07:00pm 22.3 21.5 13.9 59 4.9 NE 11 15 6 8 1018.4 - 0.0
22/06:30pm 23.2 22.3 13.7 55 5.6 NE 11 15 6 8 1018.1 - 0.0
22/06:00pm 23.9 23.4 13.7 53 6.0 NNE 9 11 5 6 1017.9 1017.1 0.0
22/05:30pm 24.8 24.5 13.4 49 6.7 NNE 7 11 4 6 1017.5 - 0.0
22/05:00pm 26.0 25.8 13.5 46 7.4 NNE 7 9 4 5 1017.4 - 0.0
22/04:30pm 26.4 25.2 12.8 43 8.0 ENE 11 13 6 7 1017.1 - 0.0
22/04:00pm 26.9 26.1 11.8 39 8.7 NNE 7 11 4 6 1017.0 - 0.0
22/03:30pm 27.3 26.5 12.9 41 8.5 N 9 17 5 9 1017.2 - 0.0
22/03:00pm 27.8 26.9 13.7 42 8.4 NNE 11 17 6 9 1017.2 1016.5 0.0
22/02:30pm 27.2 25.1 11.2 36 9.2 N 13 19 7 10 1017.5 - 0.0
22/02:00pm 27.3 25.9 13.3 42 8.3 N 13 19 7 10 1017.7 - 0.0
22/01:30pm 27.8 27.9 15.5 47 7.6 N 9 17 5 9 1018.2 - 0.0
22/01:00pm 27.4 27.2 14.8 46 7.7 S 9 26 5 14 1018.4 - 0.0
22/12:30pm 26.6 25.8 13.0 43 8.0 NE 9 13 5 7 1018.9 - 0.0
22/12:00pm 26.3 26.6 13.4 45 7.6 ENE 4 20 2 11 1019.3 1018.5 0.0
22/11:30am 26.0 24.8 14.1 47 7.1 NE 13 20 7 11 1019.9 - 0.0
22/11:00am 24.9 23.6 13.8 50 6.6 NE 13 20 7 11 1020.5 - 0.0
22/10:30am 24.9 25.0 14.4 52 6.3 E 7 13 4 7 1020.8 - 0.0
22/10:00am 24.5 24.1 15.1 55 5.7 E 11 15 6 8 1021.3 - 0.0
22/09:30am 23.5 23.6 15.5 60 4.8 SSE 9 13 5 7 1021.4 - 0.0
22/09:00am 22.2 21.9 15.5 66 4.0 ESE 11 17 6 9 1021.3 1020.6 0.0
22/08:30am 20.2 20.1 15.0 72 3.1 E 9 13 5 7 1021.4 - 0.0
22/08:00am 18.0 18.3 15.1 83 1.7 ESE 7 13 4 7 1021.2 - 0.0
22/07:30am 15.7 15.8 14.4 92 0.7 E 7 9 4 5 1021.1 - 0.0
22/07:00am 13.5 12.7 12.9 96 0.3 E 9 9 5 5 1020.9 - 0.0
22/06:30am 11.5 10.1 11.0 97 0.3 ENE 9 9 5 5 1020.9 - 0.0
22/06:13am 11.5 10.1 11.0 97 0.3 E 9 11 5 6 1020.7 - 0.0
22/06:00am 10.2 8.8 9.4 95 0.4 E 7 9 4 5 1020.5 1019.7 0.0
22/05:30am 10.9 9.7 10.3 96 0.3 E 7 7 4 4 1020.4 - 0.0
22/05:24am 11.9 11.1 11.6 98 0.2 E 7 9 4 5 1020.4 - 0.0
22/05:00am 11.6 10.9 11.3 98 0.2 E 6 7 3 4 1020.2 - 0.0
22/04:39am 11.1 10.0 10.5 96 0.3 E 7 9 4 5 1020.2 - 0.0
22/04:33am 10.7 9.6 9.9 95 0.4 E 6 7 3 4 1020.3 - 0.0
22/04:30am 10.5 9.7 9.7 95 0.4 E 4 7 2 4 1020.3 - 0.0
22/04:00am 10.1 9.9 9.2 94 0.5 CALM 0 0 0 0 1020.2 - 0.0
22/03:30am 11.5 10.7 10.9 96 0.3 E 6 7 3 4 1020.0 - 0.0
22/03:27am 11.7 10.9 11.1 96 0.3 E 6 7 3 4 1020.0 - 0.0
22/03:22am 11.6 10.8 11.0 96 0.3 ESE 6 7 3 4 1020.1 - 0.0
22/03:00am 11.5 11.7 10.7 95 0.4 CALM 0 0 0 0 1020.1 1019.3 0.0
22/02:36am 11.5 11.7 10.4 93 0.6 CALM 0 0 0 0 1020.2 - 0.0
22/02:35am 11.5 11.7 10.4 93 0.6 CALM 0 0 0 0 1020.2 - 0.0
22/02:30am 11.8 12.1 10.9 94 0.5 CALM 0 0 0 0 1020.2 - 0.0
22/02:18am 11.9 12.1 10.6 92 0.7 CALM 0 0 0 0 1020.3 - 0.0
22/02:00am 12.0 12.2 10.7 92 0.7 CALM 0 0 0 0 1020.2 - 0.0
22/01:30am 12.8 13.3 11.7 93 0.6 CALM 0 0 0 0 1020.2 - 0.0
22/01:00am 12.9 12.3 11.6 92 0.7 S 6 7 3 4 1020.3 - 0.0
22/12:30am 13.7 13.3 12.4 92 0.7 E 6 7 3 4 1020.5 - 0.0
22/12:00am 13.6 14.2 12.0 90 0.9 CALM 0 0 0 0 1020.7 1019.9 0.0
 
Date/Time
EST
Temp
°C
App
Temp
°C
Dew
Point
Rel
Hum
%
Delta-T
°C
Wind Press
QNH
hPa
Press
MSL
hPa
Rain
since 9 am
mm
Dir
 
Spd
km/h
Gust
km/h
Spd
kts
Gust
kts
21/11:30pm 14.4 14.5 12.8 90 0.9 ESE 4 7 2 4 1020.9 - 0.0
21/11:00pm 15.1 15.8 13.3 89 1.0 ESE 2 6 1 3 1020.9 - 0.0
21/10:30pm 15.9 17.1 13.7 87 1.2 CALM 0 0 0 0 1020.9 - 0.0
21/10:00pm 16.4 17.5 13.5 83 1.6 CALM 0 0 0 0 1020.8 - 0.0
21/09:30pm 17.4 18.5 13.5 78 2.2 CALM 0 0 0 0 1020.8 - 0.0
21/09:00pm 18.6 18.6 13.7 73 2.8 SE 6 7 3 4 1020.7 1019.9 0.0
21/08:30pm 20.0 20.2 14.6 71 3.2 SSE 7 9 4 5 1020.4 - 0.0
21/08:00pm 20.7 20.0 14.4 67 3.7 NE 11 15 6 8 1020.2 - 0.0
21/07:30pm 20.9 20.6 14.5 67 3.8 NE 9 15 5 8 1019.8 - 0.0
21/07:00pm 21.2 20.8 14.1 64 4.2 NNW 9 13 5 7 1019.7 - 0.0
21/06:30pm 22.6 22.2 14.2 59 5.0 NNE 9 19 5 10 1019.1 - 0.0

Other Formats:

Comma delimited format used in spreadsheet applications
http://www.bom.gov.au/fwo/IDQ60801/IDQ60801.94376.axf

JavaScript Object Notation format (JSON) in row-major order
http://www.bom.gov.au/fwo/IDQ60801/IDQ60801.94376.json